Time;durP1;ratioP1;P1;durP2;ratioP2;P2;SDS_P1;SDS_P2;PMS_P1;PMS_P2;Temp;Humidity;BMP_temperature;BMP_pressure;BME280_temperature;BME280_humidity;BME280_pressure;Samples;Min_cycle;Max_cycle;Signal;HPM_P1;HPM_P2
2022/12/20 00:02:11;;;;;;;5.20;2.33;;;17.50;54.40;18.50;100804.00;;;;4993693;28;20190;-43
2022/12/20 00:04:37;;;;;;;3.13;2.40;;;17.50;54.40;18.50;100732.00;;;;5006955;28;20209;-42
2022/12/20 00:07:03;;;;;;;2.17;1.97;;;17.60;54.80;18.50;100813.00;;;;5010125;28;20624;-42
2022/12/20 00:09:28;;;;;;;3.73;2.30;;;17.60;54.80;18.50;100802.00;;;;5010311;28;20178;-41
2022/12/20 00:11:54;;;;;;;2.60;2.40;;;17.60;54.40;18.50;100796.00;;;;5009051;28;20221;-43
2022/12/20 00:14:20;;;;;;;4.53;2.37;;;17.50;54.10;18.50;100797.00;;;;5010084;28;20179;-42
2022/12/20 00:16:46;;;;;;;4.03;2.30;;;17.50;54.10;18.40;100784.00;;;;5010383;28;20190;-42
2022/12/20 00:19:11;;;;;;;3.70;2.30;;;17.40;53.80;18.40;100785.00;;;;5010007;28;20689;-42
2022/12/20 00:21:37;;;;;;;3.13;2.53;;;17.40;53.80;18.40;100779.00;;;;5010342;28;20648;-42
2022/12/20 00:24:04;;;;;;;3.00;2.07;;;17.40;53.90;18.40;100780.00;;;;5010361;28;20176;-42
2022/12/20 00:26:31;;;;;;;2.53;2.07;;;17.40;53.80;18.40;100769.00;;;;5009547;28;20655;-42
2022/12/20 00:28:57;;;;;;;2.80;1.90;;;17.30;53.80;18.40;100755.00;;;;5009716;28;20177;-42
2022/12/20 00:31:23;;;;;;;2.50;2.30;;;17.30;53.80;18.40;100765.00;;;;5010044;28;20248;-42
2022/12/20 00:33:51;;;;;;;2.63;2.03;;;17.30;53.80;18.40;100755.00;;;;5009537;28;20197;-42
2022/12/20 00:36:17;;;;;;;2.23;2.00;;;17.30;53.80;18.40;100738.00;;;;5009822;28;20181;-42
2022/12/20 00:38:47;;;;;;;2.33;2.13;;;17.30;53.70;18.40;100752.00;;;;5009618;28;20188;-43
2022/12/20 00:41:15;;;;;;;2.37;2.17;;;17.30;53.70;18.30;100753.00;;;;5009756;28;20244;-41
2022/12/20 00:43:41;;;;;;;2.10;1.90;;;17.20;53.70;18.30;100742.00;;;;5018057;28;20265;-41
2022/12/20 00:46:08;;;;;;;3.67;2.10;;;17.20;53.60;18.30;100731.00;;;;5012891;28;20610;-43
2022/12/20 00:48:34;;;;;;;2.10;1.93;;;17.20;53.60;18.30;100741.00;;;;5008574;28;20747;-42
2022/12/20 00:51:01;;;;;;;2.20;2.00;;;17.20;53.60;18.30;100738.00;;;;5009458;28;20214;-42
2022/12/20 00:53:27;;;;;;;2.10;1.90;;;17.20;53.60;18.30;100758.00;;;;5009093;28;20180;-42
2022/12/20 00:55:53;;;;;;;2.37;2.00;;;17.10;53.50;18.20;100768.00;;;;5009365;28;20244;-42
2022/12/20 00:58:19;;;;;;;2.00;1.90;;;17.10;53.60;18.20;100767.00;;;;5009575;28;20265;-42
2022/12/20 01:00:45;;;;;;;2.37;2.17;;;17.10;53.60;18.20;100784.00;;;;5009160;28;20202;-41
2022/12/20 01:03:10;;;;;;;2.67;2.33;;;17.00;53.50;18.20;100783.00;;;;5008805;28;20180;-42
2022/12/20 01:05:36;;;;;;;2.60;2.40;;;17.00;53.70;18.20;100793.00;;;;5009061;28;20221;-42
2022/12/20 01:08:02;;;;;;;2.30;2.10;;;17.00;53.80;18.20;100817.00;;;;5008960;28;20179;-42
2022/12/20 01:10:28;;;;;;;2.47;2.27;;;17.00;53.80;18.20;100792.00;;;;5008788;28;20641;-42
2022/12/20 01:12:54;;;;;;;2.20;2.00;;;17.00;53.80;18.20;100786.00;;;;5008104;28;20191;-42
2022/12/20 01:15:20;;;;;;;2.13;1.93;;;17.00;53.90;18.10;100795.00;;;;5008592;28;20183;-42
2022/12/20 01:17:46;;;;;;;2.23;2.00;;;16.90;53.80;18.10;100793.00;;;;5008581;28;20286;-42
2022/12/20 01:20:12;;;;;;;2.37;2.17;;;17.00;53.90;18.10;100798.00;;;;5008590;28;20255;-42
2022/12/20 01:22:37;;;;;;;2.30;2.10;;;16.90;53.90;18.10;100802.00;;;;5007808;28;20190;-42
2022/12/20 01:25:04;;;;;;;2.20;2.00;;;17.00;53.90;18.10;100776.00;;;;5008273;28;20225;-42
2022/12/20 01:27:30;;;;;;;2.20;2.00;;;16.90;53.90;18.10;100767.00;;;;5007556;28;20676;-42
2022/12/20 01:29:56;;;;;;;2.20;2.00;;;16.90;53.80;18.10;100773.00;;;;5008633;28;20201;-41
2022/12/20 01:32:21;;;;;;;2.20;2.00;;;16.90;53.80;18.10;100769.00;;;;5008174;28;20172;-42
2022/12/20 01:34:47;;;;;;;2.30;2.10;;;16.90;53.80;18.10;100759.00;;;;5008304;28;20181;-42
2022/12/20 01:37:13;;;;;;;2.57;2.00;;;16.90;53.80;18.10;100769.00;;;;5008433;28;20739;-42
2022/12/20 01:39:38;;;;;;;2.10;1.90;;;16.90;53.90;18.00;100762.00;;;;5008170;28;20252;-42
2022/12/20 01:42:04;;;;;;;2.30;2.10;;;16.80;53.80;18.00;100766.00;;;;5008296;28;20304;-42
2022/12/20 01:44:30;;;;;;;2.20;2.00;;;16.80;53.80;18.00;100751.00;;;;5008175;28;20253;-42
2022/12/20 01:46:56;;;;;;;2.50;2.30;;;16.80;53.90;18.00;100751.00;;;;5008420;28;20172;-41
2022/12/20 01:49:28;;;;;;;2.30;2.10;;;16.80;53.80;18.00;100745.00;;;;5008682;28;20656;-42
2022/12/20 01:52:01;;;;;;;2.40;1.93;;;16.80;53.80;18.00;100750.00;;;;5007396;28;20536;-42
2022/12/20 01:54:32;;;;;;;2.40;2.20;;;16.80;53.90;18.00;100746.00;;;;5007781;28;20252;-42
2022/12/20 01:57:04;;;;;;;2.07;1.87;;;16.70;53.80;18.00;100747.00;;;;5007211;28;20219;-42
2022/12/20 01:59:29;;;;;;;2.23;2.10;;;16.80;53.90;18.00;100748.00;;;;5008317;28;20162;-42
2022/12/20 02:01:58;;;;;;;2.40;2.20;;;16.70;53.80;18.00;100752.00;;;;5006677;28;20165;-42
2022/12/20 02:04:24;;;;;;;1.90;1.80;;;16.70;53.90;17.90;100750.00;;;;5006606;28;20276;-41
2022/12/20 02:06:50;;;;;;;2.23;2.00;;;16.70;53.90;17.90;100753.00;;;;5008290;28;20200;-42
2022/12/20 02:09:15;;;;;;;2.30;2.10;;;16.70;53.90;17.90;100748.00;;;;5007912;28;20488;-42
2022/12/20 02:12:10;;;;;;;2.03;1.90;;;16.60;53.90;17.90;100753.00;;;;5006383;28;20195;-42
2022/12/20 02:14:48;;;;;;;2.10;1.90;;;16.60;53.90;17.90;100761.00;;;;5006744;28;20161;-42
2022/12/20 02:17:25;;;;;;;1.90;1.80;;;16.60;53.90;17.90;100752.00;;;;5008350;28;20170;-42
2022/12/20 02:20:21;;;;;;;2.17;2.00;;;16.60;54.00;17.90;100733.00;;;;5007571;28;20194;-42
2022/12/20 02:23:11;;;;;;;2.30;2.10;;;16.60;53.90;17.90;100736.00;;;;5007546;28;20177;-42
2022/12/20 02:25:49;;;;;;;2.30;2.20;;;16.60;53.90;17.90;100721.00;;;;5008004;28;20267;-41
2022/12/20 02:28:36;;;;;;;2.30;2.10;;;16.60;53.90;17.80;100723.00;;;;5007633;28;20189;-43
2022/12/20 02:31:04;;;;;;;2.37;2.17;;;16.60;53.90;17.80;100721.00;;;;5007512;28;20191;-41
2022/12/20 02:33:30;;;;;;;2.30;2.10;;;16.60;53.90;17.80;100709.00;;;;5007052;28;20180;-42
2022/12/20 02:35:55;;;;;;;2.83;2.10;;;16.60;53.90;17.80;100722.00;;;;5011555;28;20242;-42
2022/12/20 02:38:32;;;;;;;2.30;2.00;;;16.50;53.90;17.80;100725.00;;;;5011784;28;20176;-42
2022/12/20 02:41:09;;;;;;;2.33;2.13;;;16.50;53.90;17.80;100721.00;;;;5011165;28;20192;-41
2022/12/20 02:46:20;;;;;;;2.47;2.27;;;16.50;53.90;17.80;100676.00;;;;5014221;28;20230;-41
2022/12/20 02:48:46;;;;;;;2.20;2.00;;;16.50;53.90;17.80;100715.00;;;;5018608;28;20263;-43
2022/12/20 02:51:12;;;;;;;2.40;2.20;;;16.50;53.90;17.80;100705.00;;;;5019994;28;20196;-41
2022/12/20 02:53:38;;;;;;;2.60;2.40;;;16.50;53.90;17.80;100691.00;;;;5013536;28;20172;-41
2022/12/20 02:56:13;;;;;;;2.47;2.20;;;16.50;54.20;17.70;100602.00;;;;5010350;28;20172;-41
2022/12/20 02:59:06;;;;;;;3.93;2.20;;;16.50;54.10;17.70;100716.00;;;;5010239;28;20165;-42
2022/12/20 03:01:48;;;;;;;2.40;2.20;;;16.60;54.60;17.70;100717.00;;;;5010025;28;20794;-41
2022/12/20 03:04:15;;;;;;;4.30;2.40;;;16.50;54.30;17.70;100724.00;;;;5010084;28;20160;-42
2022/12/20 03:07:02;;;;;;;4.67;2.50;;;16.40;54.90;17.60;100717.00;;;;5010021;28;20181;-42
2022/12/20 03:09:29;;;;;;;4.03;2.70;;;16.30;55.80;17.60;100730.00;;;;5011084;28;20628;-42
2022/12/20 03:11:55;;;;;;;4.63;3.00;;;16.10;56.20;17.60;100715.00;;;;5009150;28;20260;-41
2022/12/20 03:14:21;;;;;;;2.97;2.70;;;16.00;56.30;17.50;100714.00;;;;5011459;28;20633;-42
2022/12/20 03:16:47;;;;;;;3.00;2.80;;;16.00;56.50;17.50;100738.00;;;;5011525;28;20500;-42
2022/12/20 03:19:13;;;;;;;3.03;2.80;;;16.00;56.70;17.50;100714.00;;;;5010986;28;20188;-42
2022/12/20 03:21:39;;;;;;;3.03;2.60;;;15.90;57.00;17.50;100707.00;;;;5015708;28;20202;-41
2022/12/20 03:24:05;;;;;;;3.03;2.73;;;15.90;57.10;17.40;100704.00;;;;5019388;28;20223;-41
2022/12/20 03:26:30;;;;;;;2.60;2.40;;;15.90;57.30;17.40;100698.00;;;;5011171;28;20251;-41
2022/12/20 03:28:56;;;;;;;3.40;3.00;;;15.90;57.60;17.40;100706.00;;;;5011222;28;20168;-43
2022/12/20 03:31:22;;;;;;;3.07;2.70;;;15.80;57.50;17.40;100719.00;;;;5010571;28;20673;-41
2022/12/20 03:33:47;;;;;;;3.10;2.67;;;15.80;57.60;17.40;100722.00;;;;5010866;28;20251;-41
2022/12/20 03:36:13;;;;;;;4.03;2.80;;;15.80;57.50;17.30;100712.00;;;;5010598;28;20176;-42
2022/12/20 03:38:39;;;;;;;3.10;2.80;;;15.80;57.80;17.30;100713.00;;;;5011269;28;20260;-41
2022/12/20 03:41:05;;;;;;;3.00;2.70;;;15.80;57.80;17.30;100716.00;;;;5011110;28;20266;-43
2022/12/20 03:43:31;;;;;;;2.73;2.33;;;15.70;57.90;17.30;100726.00;;;;5011596;28;20320;-41
2022/12/20 03:45:56;;;;;;;3.50;2.90;;;15.70;58.10;17.30;100722.00;;;;5010809;28;20208;-41
2022/12/20 03:48:22;;;;;;;3.10;2.80;;;15.70;58.20;17.20;100721.00;;;;5011230;28;20172;-41
2022/12/20 03:50:48;;;;;;;2.90;2.60;;;15.80;58.40;17.20;100726.00;;;;5010984;28;20195;-42
2022/12/20 03:53:14;;;;;;;3.10;2.70;;;15.70;58.10;17.20;100710.00;;;;5010254;28;20176;-42
2022/12/20 03:55:40;;;;;;;3.47;2.73;;;15.80;57.70;17.20;100706.00;;;;5009374;28;20314;-42
2022/12/20 03:58:05;;;;;;;4.47;2.67;;;15.90;57.80;17.20;100720.00;;;;5010620;28;20176;-42
2022/12/20 04:00:31;;;;;;;2.97;2.50;;;16.00;56.90;17.30;100720.00;;;;5010725;28;20191;-41
2022/12/20 04:02:57;;;;;;;2.67;2.47;;;16.00;56.60;17.30;100708.00;;;;5010894;28;20183;-42
2022/12/20 04:05:22;;;;;;;2.80;2.50;;;16.00;56.40;17.30;100718.00;;;;5010316;28;20656;-42
2022/12/20 04:07:48;;;;;;;2.73;2.53;;;16.00;56.20;17.30;100727.00;;;;5010622;28;20176;-42
2022/12/20 04:10:14;;;;;;;2.60;2.40;;;16.10;56.20;17.30;100730.00;;;;5010071;28;20195;-41
2022/12/20 04:12:39;;;;;;;2.80;2.60;;;16.00;56.00;17.30;100732.00;;;;5010182;28;20576;-42
2022/12/20 04:15:06;;;;;;;2.60;2.40;;;16.10;56.00;17.30;100735.00;;;;5010542;28;20181;-41
2022/12/20 04:17:32;;;;;;;2.73;2.40;;;16.00;55.80;17.00;100735.00;;;;5010075;28;20184;-41
2022/12/20 04:20:17;;;;;;;2.90;2.60;;;16.10;55.70;17.30;100719.00;;;;5010555;28;20265;-41
2022/12/20 04:22:47;;;;;;;2.60;2.40;;;16.10;55.90;17.30;100726.00;;;;5010042;28;20171;-42
2022/12/20 04:25:13;;;;;;;3.23;2.30;;;16.10;55.60;17.30;100718.00;;;;5010219;28;20277;-41
2022/12/20 04:27:39;;;;;;;2.40;2.20;;;16.10;55.60;17.30;100716.00;;;;5009785;28;20176;-41
2022/12/20 04:30:05;;;;;;;4.07;2.40;;;16.10;55.70;17.30;100713.00;;;;5010400;28;20264;-41
2022/12/20 04:32:31;;;;;;;2.47;2.27;;;16.00;55.60;17.30;100704.00;;;;5010402;28;20172;-41
2022/12/20 04:34:57;;;;;;;2.70;2.40;;;16.00;55.50;17.30;100711.00;;;;5010313;28;20171;-41
2022/12/20 04:37:22;;;;;;;3.43;2.30;;;16.00;55.60;17.30;100711.00;;;;5010338;28;20175;-42
2022/12/20 04:39:48;;;;;;;3.03;2.30;;;16.00;55.50;17.30;100700.00;;;;5003920;28;20566;-41
2022/12/20 04:42:14;;;;;;;2.97;2.17;;;16.00;55.60;17.30;100661.00;;;;4990028;28;20181;-43
2022/12/20 04:44:40;;;;;;;3.03;2.30;;;16.00;55.50;17.30;100702.00;;;;4991218;28;20240;-42
2022/12/20 04:47:05;;;;;;;6.87;2.30;;;16.00;55.60;17.30;100704.00;;;;5011553;28;20179;-41
2022/12/20 04:49:31;;;;;;;3.83;2.30;;;16.10;55.70;17.30;100709.00;;;;5010307;28;20386;-41
2022/12/20 04:53:46;;;;;;;2.47;2.10;;;16.00;55.60;17.30;100713.00;;;;5009736;28;20227;-42
2022/12/20 04:54:42;;;;;;;7.37;2.20;;;16.10;55.60;17.20;100705.00;;;;5009699;28;20183;-41
2022/12/20 04:57:08;;;;;;;7.37;2.40;;;16.00;55.60;17.20;100686.00;;;;5009574;28;20687;-42
2022/12/20 04:59:34;;;;;;;3.20;2.20;;;16.00;55.60;17.20;100686.00;;;;5009465;28;20172;-41
2022/12/20 05:02:00;;;;;;;3.83;2.23;;;16.00;55.70;17.20;100677.00;;;;5009123;28;20184;-41
2022/12/20 05:04:26;;;;;;;4.60;2.40;;;16.00;55.80;17.20;100678.00;;;;5009629;28;20702;-41
2022/12/20 05:06:52;;;;;;;2.50;2.27;;;16.00;55.60;17.20;100674.00;;;;5009907;28;20179;-41
2022/12/20 05:09:18;;;;;;;3.43;2.10;;;16.00;55.60;17.20;100683.00;;;;5009895;28;20176;-41
2022/12/20 05:11:43;;;;;;;2.57;2.20;;;16.00;55.60;17.20;100674.00;;;;5008691;28;20199;-42
2022/12/20 05:14:09;;;;;;;2.33;2.13;;;16.00;55.60;17.20;100674.00;;;;5009593;28;20172;-42
2022/12/20 05:16:36;;;;;;;5.27;2.20;;;16.00;55.60;17.20;100665.00;;;;5009637;28;20279;-42
2022/12/20 05:19:03;;;;;;;2.20;2.00;;;16.00;55.60;17.20;100674.00;;;;5009206;28;20249;-42
2022/12/20 05:26:58;;;;;;;2.97;1.97;;;15.90;55.70;17.20;100655.00;;;;5009559;28;20338;-42
2022/12/20 05:29:24;;;;;;;2.40;2.07;;;15.90;55.70;17.20;100653.00;;;;5009380;28;20287;-42
2022/12/20 05:31:50;;;;;;;2.20;2.00;;;15.90;55.70;17.10;100648.00;;;;5009163;28;20185;-42
2022/12/20 05:34:15;;;;;;;3.90;2.00;;;15.90;55.80;17.10;100653.00;;;;5009313;28;20237;-42
2022/12/20 05:36:41;;;;;;;2.37;2.10;;;15.90;55.80;17.10;100643.00;;;;5009454;28;20176;-41
2022/12/20 05:39:07;;;;;;;2.40;2.20;;;15.90;55.80;17.10;100635.00;;;;5009909;28;20171;-41
2022/12/20 05:41:32;;;;;;;2.20;2.00;;;15.90;55.80;17.10;100638.00;;;;5009362;28;20737;-42
2022/12/20 05:43:58;;;;;;;2.27;2.03;;;15.90;55.80;17.10;100643.00;;;;5009475;28;20172;-42
2022/12/20 05:46:24;;;;;;;2.83;2.20;;;15.90;55.80;17.10;100631.00;;;;5009562;28;20665;-42
2022/12/20 05:48:49;;;;;;;3.50;2.20;;;15.90;55.80;17.10;100625.00;;;;5012605;28;20184;-42
2022/12/20 05:51:15;;;;;;;2.17;1.97;;;15.90;55.80;17.00;100629.00;;;;5009588;28;20188;-42
2022/12/20 05:53:41;;;;;;;2.70;2.17;;;15.90;55.80;17.10;100625.00;;;;5010026;28;20172;-41
2022/12/20 05:56:07;;;;;;;2.03;1.93;;;15.90;55.90;17.10;100557.00;;;;5009912;28;20180;-42
2022/12/20 05:58:32;;;;;;;2.30;2.10;;;15.90;55.90;17.10;100618.00;;;;5009557;28;20168;-41
2022/12/20 06:01:03;;;;;;;2.90;2.20;;;15.90;55.80;17.00;100625.00;;;;5013838;28;20748;-41
2022/12/20 06:03:29;;;;;;;2.30;2.10;;;15.90;55.80;17.00;100636.00;;;;5016953;28;20172;-42
2022/12/20 06:05:55;;;;;;;2.43;2.17;;;15.90;55.80;17.00;100627.00;;;;5009021;28;20275;-42
2022/12/20 06:08:22;;;;;;;2.13;1.90;;;15.90;55.80;17.00;100619.00;;;;5009468;28;20243;-42
2022/12/20 06:10:48;;;;;;;1.97;1.73;;;15.90;55.80;17.00;100614.00;;;;5013089;28;20191;-42
2022/12/20 06:13:14;;;;;;;2.20;2.00;;;15.90;55.80;17.00;100621.00;;;;5012901;28;20182;-42
2022/12/20 06:15:39;;;;;;;2.13;1.93;;;15.80;55.80;17.00;100611.00;;;;5012824;28;20230;-42
2022/12/20 06:18:05;;;;;;;2.20;2.00;;;15.80;55.90;17.00;100616.00;;;;5012889;28;20180;-42
2022/12/20 06:20:32;;;;;;;2.10;1.90;;;15.80;55.90;17.00;100614.00;;;;5013428;28;20715;-42
2022/12/20 06:22:58;;;;;;;2.20;2.00;;;15.80;55.90;17.00;100623.00;;;;5012983;28;20179;-41
2022/12/20 06:25:24;;;;;;;2.97;2.07;;;15.80;55.90;17.00;100627.00;;;;5013479;28;20195;-41
2022/12/20 06:27:50;;;;;;;2.07;1.90;;;15.80;55.90;17.00;100621.00;;;;5012755;28;20180;-40
2022/12/20 06:30:16;;;;;;;2.30;2.10;;;15.80;55.90;17.00;100621.00;;;;5013133;28;20199;-43
2022/12/20 06:32:41;;;;;;;2.00;1.90;;;15.80;56.00;17.00;100605.00;;;;5018541;28;20176;-42
2022/12/20 06:35:08;;;;;;;2.27;1.93;;;15.80;56.00;17.00;100609.00;;;;5022945;28;20190;-41
2022/12/20 06:37:33;;;;;;;2.77;2.17;;;15.80;55.90;17.00;100613.00;;;;5014802;28;20172;-42
2022/12/20 06:39:59;;;;;;;2.30;2.10;;;15.80;56.10;17.00;100620.00;;;;5013171;28;20218;-42
2022/12/20 06:42:25;;;;;;;2.20;2.00;;;15.80;56.10;17.00;100617.00;;;;5009419;28;20197;-41
2022/12/20 06:44:50;;;;;;;3.63;2.00;;;15.80;56.00;17.00;100617.00;;;;5010674;28;20203;-41
2022/12/20 06:47:16;;;;;;;2.00;1.80;;;15.80;56.10;17.00;100610.00;;;;5012389;28;20156;-41
2022/12/20 06:49:42;;;;;;;2.20;2.00;;;15.80;56.10;17.00;100601.00;;;;5010398;28;20614;-42
2022/12/20 06:52:08;;;;;;;2.40;2.10;;;15.80;56.10;16.90;100595.00;;;;5012246;28;20171;-42
2022/12/20 06:54:33;;;;;;;2.20;2.00;;;15.80;56.00;16.90;100598.00;;;;5011378;28;20172;-41
2022/12/20 06:56:59;;;;;;;2.53;2.10;;;15.80;56.00;16.90;100595.00;;;;5012632;28;20652;-41
2022/12/20 06:59:25;;;;;;;2.00;1.87;;;15.80;56.00;16.90;100590.00;;;;5012699;28;20168;-42
2022/12/20 07:01:51;;;;;;;2.20;2.10;;;15.70;56.00;16.90;100582.00;;;;5013662;28;20664;-42
2022/12/20 07:04:16;;;;;;;3.60;1.90;;;15.70;56.10;16.90;100589.00;;;;5021439;28;20174;-41
2022/12/20 07:06:42;;;;;;;2.00;1.90;;;15.70;56.30;16.60;100591.00;;;;5021376;28;20191;-40
2022/12/20 07:09:08;;;;;;;3.50;2.20;;;15.70;56.30;16.80;100575.00;;;;5019180;28;20180;-41
2022/12/20 07:11:34;;;;;;;3.83;2.20;;;15.70;56.40;16.80;100582.00;;;;5012233;28;20187;-41
2022/12/20 07:13:59;;;;;;;2.07;1.87;;;15.70;56.60;16.80;100591.00;;;;5012223;28;20662;-40
2022/12/20 07:16:25;;;;;;;1.97;1.80;;;15.70;56.50;16.80;100574.00;;;;5012306;28;20171;-40
2022/12/20 07:18:51;;;;;;;2.20;2.00;;;15.60;56.30;16.80;100589.00;;;;5011578;28;20723;-42
2022/12/20 07:21:18;;;;;;;2.30;2.10;;;15.70;56.30;16.80;100589.00;;;;5011878;28;20274;-41
2022/12/20 07:23:44;;;;;;;2.30;2.10;;;15.70;56.30;16.80;100587.00;;;;5012386;28;20238;-41
2022/12/20 07:26:10;;;;;;;2.77;2.10;;;15.70;56.20;16.80;100589.00;;;;5011415;28;20979;-41
2022/12/20 07:28:36;;;;;;;3.30;2.23;;;15.70;56.20;16.80;100577.00;;;;5012091;28;20172;-42
2022/12/20 07:31:02;;;;;;;2.40;2.00;;;15.70;56.10;16.80;100579.00;;;;5012318;28;20241;-42
2022/12/20 07:33:29;;;;;;;2.53;2.00;;;15.70;56.10;16.80;100580.00;;;;5009790;28;20625;-41
2022/12/20 07:36:02;;;;;;;2.97;2.10;;;15.60;55.90;16.80;100581.00;;;;5010761;28;20206;-42
2022/12/20 07:38:28;;;;;;;2.20;2.00;;;15.60;56.00;16.80;100573.00;;;;5011448;28;20251;-42
2022/12/20 07:40:54;;;;;;;2.63;2.00;;;15.70;56.00;16.80;100565.00;;;;5010993;28;20204;-42
2022/12/20 07:43:20;;;;;;;2.37;1.97;;;15.60;55.90;16.80;100567.00;;;;5011437;28;20251;-42
2022/12/20 07:45:46;;;;;;;2.30;2.10;;;15.60;55.90;16.80;100567.00;;;;5010896;28;20204;-41
2022/12/20 07:48:12;;;;;;;2.20;2.00;;;15.60;56.00;16.80;100566.00;;;;5011436;28;20167;-41
2022/12/20 07:50:38;;;;;;;2.10;2.00;;;15.60;56.00;16.80;100556.00;;;;5011309;28;20192;-41
2022/12/20 07:53:04;;;;;;;1.90;1.80;;;15.60;55.90;16.70;100573.00;;;;5009962;28;20194;-42
2022/12/20 07:55:30;;;;;;;2.30;1.90;;;15.60;56.00;16.80;100576.00;;;;5011282;28;20917;-42
2022/12/20 07:57:59;;;;;;;2.67;2.10;;;15.60;55.90;16.70;100574.00;;;;5011055;28;20649;-41
2022/12/20 08:00:25;;;;;;;2.10;2.00;;;15.60;56.00;16.70;100579.00;;;;5009792;28;20697;-42
2022/12/20 08:03:07;;;;;;;2.57;2.00;;;15.60;55.90;16.70;100569.00;;;;5009361;28;20175;-42
2022/12/20 08:05:34;;;;;;;2.23;1.97;;;15.60;55.90;16.70;100569.00;;;;5009700;28;20619;-41
2022/12/20 08:08:00;;;;;;;2.30;2.00;;;15.60;55.90;16.70;100578.00;;;;5009510;28;20262;-41
2022/12/20 08:10:26;;;;;;;2.10;1.90;;;15.60;56.00;16.70;100573.00;;;;5009510;28;20611;-41
2022/12/20 08:12:52;;;;;;;2.30;2.10;;;15.50;55.80;16.70;100588.00;;;;5009399;28;20167;-41
2022/12/20 08:15:18;;;;;;;2.20;2.00;;;15.50;55.90;16.70;100573.00;;;;5010798;28;20164;-42
2022/12/20 08:17:44;;;;;;;2.57;1.90;;;15.50;56.50;16.70;100569.00;;;;5009254;28;20230;-41
2022/12/20 08:20:10;;;;;;;2.00;1.90;;;15.60;56.00;16.70;100561.00;;;;5010991;28;20198;-41
2022/12/20 08:22:36;;;;;;;2.57;2.07;;;15.50;55.80;16.70;100571.00;;;;5014153;28;20172;-42
2022/12/20 08:25:01;;;;;;;2.13;2.03;;;15.50;55.80;16.70;100581.00;;;;5012601;28;20215;-42
2022/12/20 08:27:28;;;;;;;1.90;1.80;;;15.50;55.80;16.70;100572.00;;;;5013846;28;20290;-41
2022/12/20 08:29:54;;;;;;;2.27;1.90;;;15.50;55.80;16.70;100571.00;;;;5011017;28;20780;-42
2022/12/20 08:32:20;;;;;;;1.97;1.80;;;15.50;55.80;16.70;100562.00;;;;5009202;28;20175;-42
2022/12/20 08:34:47;;;;;;;2.10;1.90;;;15.50;55.80;16.70;100557.00;;;;5011710;28;20176;-42
2022/12/20 08:37:15;;;;;;;1.97;1.87;;;15.50;55.90;16.70;100552.00;;;;5014247;28;20188;-42
2022/12/20 08:39:41;;;;;;;2.00;1.90;;;15.50;55.90;16.60;100549.00;;;;5012650;28;20230;-42
2022/12/20 08:42:06;;;;;;;1.93;1.77;;;15.50;55.90;16.60;100546.00;;;;5016804;28;20180;-41
2022/12/20 08:44:32;;;;;;;2.00;1.80;;;15.50;55.80;16.60;100558.00;;;;5012605;28;20542;-42
2022/12/20 08:46:58;;;;;;;2.13;1.90;;;15.50;55.80;16.60;100558.00;;;;5010259;28;20163;-40
2022/12/20 08:49:24;;;;;;;2.17;1.97;;;15.40;55.80;16.60;100564.00;;;;5010242;28;20187;-40
2022/12/20 08:51:49;;;;;;;1.90;1.80;;;15.50;55.80;16.60;100560.00;;;;5009769;28;20202;-41
2022/12/20 08:54:16;;;;;;;2.50;1.83;;;15.40;55.80;16.60;100560.00;;;;5009865;28;20563;-42
2022/12/20 08:56:42;;;;;;;1.83;1.73;;;15.50;56.40;16.60;100572.00;;;;5010405;28;20210;-41
2022/12/20 08:59:08;;;;;;;2.73;1.87;;;15.40;55.80;16.60;100561.00;;;;5010241;28;20266;-41
2022/12/20 09:01:33;;;;;;;2.13;1.97;;;15.40;55.80;16.60;100562.00;;;;5010186;28;20200;-41
2022/12/20 09:03:59;;;;;;;1.90;1.80;;;15.50;55.80;16.60;100568.00;;;;5009573;28;20199;-41
2022/12/20 09:06:25;;;;;;;1.70;1.60;;;15.40;55.80;16.60;100561.00;;;;5010271;28;20212;-41
2022/12/20 09:08:51;;;;;;;1.93;1.83;;;15.40;55.70;16.60;100570.00;;;;5009562;28;20243;-41
2022/12/20 09:11:22;;;;;;;1.90;1.80;;;15.40;55.70;16.60;100568.00;;;;5009861;28;20731;-41
2022/12/20 09:13:49;;;;;;;2.20;2.00;;;15.40;55.70;16.60;100560.00;;;;5009674;28;20186;-42
2022/12/20 09:16:17;;;;;;;1.90;1.80;;;15.40;55.80;16.60;100557.00;;;;5009646;28;20180;-42
2022/12/20 09:18:43;;;;;;;1.90;1.80;;;15.40;55.70;16.60;100555.00;;;;5009474;28;20191;-42
2022/12/20 09:21:09;;;;;;;2.20;2.00;;;15.40;55.70;16.60;100551.00;;;;5008700;28;20234;-41
2022/12/20 09:23:35;;;;;;;1.80;1.70;;;15.40;55.80;16.60;100547.00;;;;5009964;28;20190;-42
2022/12/20 09:26:14;;;;;;;3.77;2.00;;;15.40;55.80;16.60;100559.00;;;;5009157;28;20221;-41
2022/12/20 09:28:41;;;;;;;2.27;2.00;;;15.50;55.90;16.60;100561.00;;;;5009385;28;20640;-40
2022/12/20 09:31:10;;;;;;;4.57;1.93;;;15.50;56.20;16.60;100565.00;;;;5023062;28;20605;-41
2022/12/20 09:33:36;;;;;;;5.13;1.87;;;15.50;56.30;16.60;100558.00;;;;5009905;28;20156;-41
2022/12/20 09:36:02;;;;;;;4.90;2.13;;;15.60;56.70;16.70;100572.00;;;;5009783;28;20195;-41
2022/12/20 09:38:28;;;;;;;8.30;1.97;;;15.70;56.60;16.70;100568.00;;;;5009378;28;20262;-41
2022/12/20 09:41:00;;;;;;;5.33;2.03;;;15.80;56.40;16.80;100562.00;;;;5009240;28;20286;-41
2022/12/20 09:43:26;;;;;;;4.60;1.90;;;15.90;56.20;16.80;100570.00;;;;5009875;28;20645;-41
2022/12/20 09:45:57;;;;;;;4.10;1.90;;;16.10;56.20;16.90;100563.00;;;;5011735;28;20262;-41
2022/12/20 09:48:35;;;;;;;5.13;1.90;;;16.20;56.30;17.00;100566.00;;;;5017113;28;20186;-41
2022/12/20 09:51:30;;;;;;;4.30;1.90;;;16.40;56.00;17.10;100525.00;;;;5031454;28;20187;-40
2022/12/20 09:54:17;;;;;;;2.93;2.03;;;16.50;56.00;17.20;100538.00;;;;5030658;28;20781;-41
2022/12/20 09:57:21;;;;;;;2.33;1.90;;;16.70;55.80;17.30;100524.00;;;;5030234;28;20225;-41
2022/12/20 09:59:46;;;;;;;2.03;1.70;;;16.90;55.70;17.40;100530.00;;;;5043998;28;20187;-42
2022/12/20 10:02:14;;;;;;;2.90;1.80;;;17.10;55.50;17.60;100538.00;;;;5029609;28;20250;-42
2022/12/20 10:04:40;;;;;;;3.07;2.00;;;17.20;55.30;17.70;100547.00;;;;5029702;28;20172;-41
2022/12/20 10:07:17;;;;;;;3.10;2.03;;;17.40;55.10;17.80;100553.00;;;;5028888;28;20157;-42
2022/12/20 10:10:20;;;;;;;2.57;1.90;;;17.40;55.00;17.90;100532.00;;;;5030356;28;20240;-42
2022/12/20 10:12:54;;;;;;;2.17;1.90;;;17.60;55.00;18.00;100523.00;;;;5026638;28;20171;-42
2022/12/20 10:15:32;;;;;;;2.13;1.87;;;17.60;54.90;18.10;100523.00;;;;5012519;28;20169;-42
2022/12/20 10:18:16;;;;;;;1.87;1.77;;;17.60;55.90;18.10;100518.00;;;;4995751;28;20181;-41
2022/12/20 10:21:14;;;;;;;5.53;2.03;;;17.60;56.40;18.20;100520.00;;;;5012590;28;20302;-40
2022/12/20 10:23:57;;;;;;;3.00;2.03;;;17.60;56.40;18.20;100515.00;;;;5011245;28;20170;-42
2022/12/20 10:26:22;;;;;;;3.73;1.90;;;17.70;56.90;18.30;100518.00;;;;5012743;28;20200;-42
2022/12/20 10:28:49;;;;;;;2.93;1.73;;;17.70;57.00;18.30;100515.00;;;;5012381;28;20176;-41
2022/12/20 10:31:15;;;;;;;1.90;1.80;;;17.70;56.50;18.30;100507.00;;;;5012480;28;20212;-41
2022/12/20 10:33:42;;;;;;;2.53;1.97;;;17.70;56.40;18.30;100511.00;;;;5012314;28;20196;-41
2022/12/20 10:36:26;;;;;;;2.07;1.73;;;17.60;56.20;18.40;100509.00;;;;5020683;28;20180;-41
2022/12/20 10:39:20;;;;;;;2.13;1.93;;;17.60;56.20;18.40;100501.00;;;;5023186;28;20199;-41
2022/12/20 10:41:48;;;;;;;2.57;1.80;;;17.60;56.20;18.40;100501.00;;;;5013867;28;20218;-41
2022/12/20 10:44:14;;;;;;;4.43;1.90;;;17.60;56.20;18.40;100492.00;;;;5012860;28;20243;-42
2022/12/20 10:46:46;;;;;;;2.17;1.70;;;17.60;56.40;18.40;100486.00;;;;5012578;28;20211;-42
2022/12/20 10:49:33;;;;;;;1.97;1.87;;;17.50;56.20;18.40;100482.00;;;;5010877;28;20200;-42
2022/12/20 10:52:18;;;;;;;2.30;1.97;;;17.50;56.20;18.40;100472.00;;;;5011996;28;20164;-42
2022/12/20 10:54:45;;;;;;;2.40;1.90;;;17.50;56.30;18.30;100476.00;;;;5012459;28;20167;-41
2022/12/20 10:57:24;;;;;;;3.60;2.10;;;17.50;56.40;18.30;100476.00;;;;5014694;28;20277;-41
2022/12/20 11:00:01;;;;;;;2.10;1.83;;;17.50;56.50;18.30;100470.00;;;;5013773;28;20165;-41
2022/12/20 11:02:29;;;;;;;3.33;2.10;;;17.50;56.50;18.30;100461.00;;;;5012083;28;20161;-42